PWSweather.com
Personal Weather Stations
Station Observations
WSLEMBEKE
Flanders, LembekeBE 9971

FlandersLembekeBE 9971

Lat: 51.1917315, Lon: 3.6361177999999654

Elevation: 21

Station Type: Davis Vantage Pro2

Latest ConditionsUpdated 6:37:00 PM GMT+01:01 Wednesday, Jul 17, 2019
Currently Today's Max Today's Min Today's Average
Temperature 75.2°F24.0°C 80.4°F26.9°C 48.7°F9.3°C 65.2°F18.4°C
Dew Point 57.9°F14.4°C 61.3°F16.3°C 46.8°F8.2°C 54.6°F12.6°C
Winds 3.8 mph ENE6.1 kmh ENE 5.4 mph -8.7 kmh - - 1.6 mph 2.6 kmh
Wind Gusts 6.3 mph10.1 kmh 8.5 mph13.7 kmh - -
Humidity 55% 94% 46% 72%
Pressure 29.93 in1013.5 mb 30.08 in1018.6 mb 29.93 in1013.5 mb -
Hour Temp Dew Point Humidity Winds Wind Gusts Pressure Precip Precip Rate Daily Precip Total
06:37 PM 75.2°F24.0°C 57.9°F14.4°C 55% 3.8 mph ENE6.1 kmh ENE 6.3 mph10.1 kmh 29.93 in1013.5 mb 0.00 in0.0 mm 0.00 in0.0 mm 0.00 in0.0 mm
06:32 PM 75.4°F24.1°C 58.6°F14.8°C 56% 2.0 mph NE3.2 kmh NE 6.3 mph10.1 kmh 29.93 in1013.5 mb 0.00 in0.0 mm 0.00 in0.0 mm 0.00 in0.0 mm
06:27 PM 75.4°F24.1°C 58.1°F14.5°C 55% 2.9 mph NE4.7 kmh NE 6.3 mph10.1 kmh 29.93 in1013.5 mb 0.00 in0.0 mm 0.00 in0.0 mm 0.00 in0.0 mm
06:22 PM 75.6°F24.2°C 58.3°F14.6°C 55% 3.1 mph ENE5.0 kmh ENE 7.4 mph11.9 kmh 29.93 in1013.5 mb 0.00 in0.0 mm 0.00 in0.0 mm 0.00 in0.0 mm
06:16 PM 75.7°F24.3°C 57.9°F14.4°C 54% 2.9 mph NE4.7 kmh NE 7.4 mph11.9 kmh 29.93 in1013.5 mb 0.00 in0.0 mm 0.00 in0.0 mm 0.00 in0.0 mm
06:11 PM 75.9°F24.4°C 57.6°F14.2°C 53% 4.0 mph NNE6.4 kmh NNE 7.4 mph11.9 kmh 29.93 in1013.5 mb 0.00 in0.0 mm 0.00 in0.0 mm 0.00 in0.0 mm
06:06 PM 76.1°F24.5°C 58.3°F14.6°C 54% 3.1 mph NE5.0 kmh NE 5.4 mph8.7 kmh 29.93 in1013.5 mb 0.00 in0.0 mm 0.00 in0.0 mm 0.00 in0.0 mm
06:01 PM 76.5°F24.7°C 58.6°F14.8°C 54% 3.1 mph NNE5.0 kmh NNE 5.4 mph8.7 kmh 29.93 in1013.5 mb 0.00 in0.0 mm 0.00 in0.0 mm 0.00 in0.0 mm
05:56 PM 76.5°F24.7°C 58.1°F14.5°C 53% 3.6 mph NE5.8 kmh NE 6.3 mph10.1 kmh 29.93 in1013.5 mb 0.00 in0.0 mm 0.00 in0.0 mm 0.00 in0.0 mm
05:51 PM 76.6°F24.8°C 58.3°F14.6°C 53% 3.6 mph ENE5.8 kmh ENE 6.3 mph10.1 kmh 29.94 in1013.9 mb 0.00 in0.0 mm 0.00 in0.0 mm 0.00 in0.0 mm
05:46 PM 76.8°F24.9°C 59.0°F15.0°C 54% 2.0 mph E3.2 kmh E 5.4 mph8.7 kmh 29.94 in1013.9 mb 0.00 in0.0 mm 0.00 in0.0 mm 0.00 in0.0 mm
05:41 PM 77.2°F25.1°C 58.3°F14.6°C 52% 3.8 mph ESE6.1 kmh ESE 5.4 mph8.7 kmh 29.94 in1013.9 mb 0.00 in0.0 mm 0.00 in0.0 mm 0.00 in0.0 mm
05:36 PM 77.4°F25.2°C 58.8°F14.9°C 53% 2.9 mph ESE4.7 kmh ESE 6.3 mph10.1 kmh 29.94 in1013.9 mb 0.00 in0.0 mm 0.00 in0.0 mm 0.00 in0.0 mm
05:31 PM 77.5°F25.3°C 59.5°F15.3°C 54% 4.3 mph E6.9 kmh E 8.5 mph13.7 kmh 29.94 in1013.9 mb 0.00 in0.0 mm 0.00 in0.0 mm 0.00 in0.0 mm
05:26 PM 77.5°F25.3°C 58.5°F14.7°C 52% 4.3 mph E6.9 kmh E 7.4 mph11.9 kmh 29.94 in1013.9 mb 0.00 in0.0 mm 0.00 in0.0 mm 0.00 in0.0 mm
05:21 PM 77.7°F25.4°C 58.6°F14.8°C 52% 2.7 mph E4.3 kmh E 5.4 mph8.7 kmh 29.94 in1013.9 mb 0.00 in0.0 mm 0.00 in0.0 mm 0.00 in0.0 mm
05:16 PM 78.1°F25.6°C 59.5°F15.3°C 53% 3.4 mph SSE5.5 kmh SSE 6.3 mph10.1 kmh 29.94 in1013.9 mb 0.00 in0.0 mm 0.00 in0.0 mm 0.00 in0.0 mm
05:11 PM 78.1°F25.6°C 59.0°F15.0°C 52% 2.5 mph E4.0 kmh E 5.4 mph8.7 kmh 29.94 in1013.9 mb 0.00 in0.0 mm 0.00 in0.0 mm 0.00 in0.0 mm
05:06 PM 77.7°F25.4°C 58.6°F14.8°C 52% 2.7 mph NE4.3 kmh NE 5.4 mph8.7 kmh 29.94 in1013.9 mb 0.00 in0.0 mm 0.00 in0.0 mm 0.00 in0.0 mm
05:01 PM 77.5°F25.3°C 56.8°F13.8°C 49% 1.3 mph E2.1 kmh E 3.1 mph5.0 kmh 29.94 in1013.9 mb 0.00 in0.0 mm 0.00 in0.0 mm 0.00 in0.0 mm
04:56 PM 77.9°F25.5°C 58.8°F14.9°C 52% 1.6 mph SE2.6 kmh SE 4.3 mph6.9 kmh 29.95 in1014.2 mb 0.00 in0.0 mm 0.00 in0.0 mm 0.00 in0.0 mm
04:51 PM 78.1°F25.6°C 58.5°F14.7°C 51% 2.9 mph ESE4.7 kmh ESE 5.4 mph8.7 kmh 29.95 in1014.2 mb 0.00 in0.0 mm 0.00 in0.0 mm 0.00 in0.0 mm
04:46 PM 78.1°F25.6°C 58.5°F14.7°C 51% 2.9 mph NE4.7 kmh NE 5.4 mph8.7 kmh 29.95 in1014.2 mb 0.00 in0.0 mm 0.00 in0.0 mm 0.00 in0.0 mm
04:41 PM 78.3°F25.7°C 58.6°F14.8°C 51% 3.4 mph NE5.5 kmh NE 6.3 mph10.1 kmh 29.95 in1014.2 mb 0.00 in0.0 mm 0.00 in0.0 mm 0.00 in0.0 mm
04:36 PM 78.4°F25.8°C 58.8°F14.9°C 51% 4.0 mph ENE6.4 kmh ENE 6.3 mph10.1 kmh 29.95 in1014.2 mb 0.00 in0.0 mm 0.00 in0.0 mm 0.00 in0.0 mm
04:31 PM 78.3°F25.7°C 57.6°F14.2°C 49% 0.4 mph ENE0.6 kmh ENE 4.3 mph6.9 kmh 29.95 in1014.2 mb 0.00 in0.0 mm 0.00 in0.0 mm 0.00 in0.0 mm
04:26 PM 78.3°F25.7°C 58.1°F14.5°C 50% 1.3 mph NE2.1 kmh NE 3.1 mph5.0 kmh 29.95 in1014.2 mb 0.00 in0.0 mm 0.00 in0.0 mm 0.00 in0.0 mm
04:21 PM 77.7°F25.4°C 57.6°F14.2°C 50% 3.4 mph NE5.5 kmh NE 5.4 mph8.7 kmh 29.95 in1014.2 mb 0.00 in0.0 mm 0.00 in0.0 mm 0.00 in0.0 mm
04:16 PM 77.2°F25.1°C 57.0°F13.9°C 50% 1.3 mph NE2.1 kmh NE 3.1 mph5.0 kmh 29.96 in1014.6 mb 0.00 in0.0 mm 0.00 in0.0 mm 0.00 in0.0 mm
04:11 PM 77.4°F25.2°C 56.1°F13.4°C 48% 0.7 mph S1.1 kmh S 3.1 mph5.0 kmh 29.96 in1014.6 mb 0.00 in0.0 mm 0.00 in0.0 mm 0.00 in0.0 mm
04:06 PM 78.1°F25.6°C 58.5°F14.7°C 51% 2.9 mph SE4.7 kmh SE 5.4 mph8.7 kmh 29.96 in1014.6 mb 0.00 in0.0 mm 0.00 in0.0 mm 0.00 in0.0 mm
04:01 PM 78.8°F26.0°C 59.2°F15.1°C 51% 3.8 mph SE6.1 kmh SE 6.3 mph10.1 kmh 29.96 in1014.6 mb 0.00 in0.0 mm 0.00 in0.0 mm 0.00 in0.0 mm
03:56 PM 79.9°F26.6°C 59.5°F15.3°C 50% 2.7 mph SE4.3 kmh SE 5.4 mph8.7 kmh 29.96 in1014.6 mb 0.00 in0.0 mm 0.00 in0.0 mm 0.00 in0.0 mm
03:51 PM 79.9°F26.6°C 59.5°F15.3°C 50% 4.0 mph ENE6.4 kmh ENE 7.4 mph11.9 kmh 29.97 in1014.9 mb 0.00 in0.0 mm 0.00 in0.0 mm 0.00 in0.0 mm
03:46 PM 79.7°F26.5°C 59.4°F15.2°C 50% 3.8 mph ESE6.1 kmh ESE 6.3 mph10.1 kmh 29.96 in1014.6 mb 0.00 in0.0 mm 0.00 in0.0 mm 0.00 in0.0 mm
03:41 PM 79.5°F26.4°C 56.8°F13.8°C 46% 1.8 mph NNW2.9 kmh NNW 3.1 mph5.0 kmh 29.96 in1014.6 mb 0.00 in0.0 mm 0.00 in0.0 mm 0.00 in0.0 mm
03:36 PM 79.5°F26.4°C 58.1°F14.5°C 48% 3.6 mph NE5.8 kmh NE 6.3 mph10.1 kmh 29.96 in1014.6 mb 0.00 in0.0 mm 0.00 in0.0 mm 0.00 in0.0 mm
03:31 PM 79.3°F26.3°C 57.9°F14.4°C 48% 2.7 mph NNE4.3 kmh NNE 6.3 mph10.1 kmh 29.97 in1014.9 mb 0.00 in0.0 mm 0.00 in0.0 mm 0.00 in0.0 mm
03:26 PM 79.5°F26.4°C 58.6°F14.8°C 49% 4.5 mph ENE7.2 kmh ENE 7.4 mph11.9 kmh 29.97 in1014.9 mb 0.00 in0.0 mm 0.00 in0.0 mm 0.00 in0.0 mm
03:21 PM 79.3°F26.3°C 57.9°F14.4°C 48% 5.4 mph ENE8.7 kmh ENE 7.4 mph11.9 kmh 29.97 in1014.9 mb 0.00 in0.0 mm 0.00 in0.0 mm 0.00 in0.0 mm
03:16 PM 79.9°F26.6°C 57.2°F14.0°C 46% 2.0 mph N3.2 kmh N 6.3 mph10.1 kmh 29.97 in1014.9 mb 0.00 in0.0 mm 0.00 in0.0 mm 0.00 in0.0 mm
03:11 PM 80.1°F26.7°C 59.2°F15.1°C 49% 2.5 mph NE4.0 kmh NE 4.3 mph6.9 kmh 29.97 in1014.9 mb 0.00 in0.0 mm 0.00 in0.0 mm 0.00 in0.0 mm
03:06 PM 80.4°F26.9°C 57.7°F14.3°C 46% 2.2 mph 3.5 kmh 6.3 mph10.1 kmh 29.97 in1014.9 mb 0.00 in0.0 mm 0.00 in0.0 mm 0.00 in0.0 mm
03:01 PM 80.1°F26.7°C 57.4°F14.1°C 46% 2.7 mph NNW4.3 kmh NNW 6.3 mph10.1 kmh 29.98 in1015.2 mb 0.00 in0.0 mm 0.00 in0.0 mm 0.00 in0.0 mm
02:56 PM 80.1°F26.7°C 58.1°F14.5°C 47% 1.3 mph ENE2.1 kmh ENE 6.3 mph10.1 kmh 29.97 in1014.9 mb 0.00 in0.0 mm 0.00 in0.0 mm 0.00 in0.0 mm
02:51 PM 80.1°F26.7°C 58.1°F14.5°C 47% 4.7 mph NE7.6 kmh NE 7.4 mph11.9 kmh 29.98 in1015.2 mb 0.00 in0.0 mm 0.00 in0.0 mm 0.00 in0.0 mm
02:46 PM 80.4°F26.9°C 57.7°F14.3°C 46% 4.0 mph NNE6.4 kmh NNE 7.4 mph11.9 kmh 29.98 in1015.2 mb 0.00 in0.0 mm 0.00 in0.0 mm 0.00 in0.0 mm
02:41 PM 80.1°F26.7°C 59.2°F15.1°C 49% 3.8 mph SE6.1 kmh SE 6.3 mph10.1 kmh 29.98 in1015.2 mb 0.00 in0.0 mm 0.00 in0.0 mm 0.00 in0.0 mm
02:36 PM 79.5°F26.4°C 58.1°F14.5°C 48% 4.3 mph E6.9 kmh E 5.4 mph8.7 kmh 29.98 in1015.2 mb 0.00 in0.0 mm 0.00 in0.0 mm 0.00 in0.0 mm
02:31 PM 79.3°F26.3°C 58.5°F14.7°C 49% 1.3 mph NNW2.1 kmh NNW 3.1 mph5.0 kmh 29.98 in1015.2 mb 0.00 in0.0 mm 0.00 in0.0 mm 0.00 in0.0 mm
02:26 PM 78.8°F26.0°C 58.6°F14.8°C 50% 1.6 mph N2.6 kmh N 4.3 mph6.9 kmh 29.98 in1015.2 mb 0.00 in0.0 mm 0.00 in0.0 mm 0.00 in0.0 mm
02:21 PM 79.0°F26.1°C 58.1°F14.5°C 49% 2.7 mph ESE4.3 kmh ESE 5.4 mph8.7 kmh 29.98 in1015.2 mb 0.00 in0.0 mm 0.00 in0.0 mm 0.00 in0.0 mm
02:16 PM 79.3°F26.3°C 59.7°F15.4°C 51% 2.9 mph E4.7 kmh E 6.3 mph10.1 kmh 29.98 in1015.2 mb 0.00 in0.0 mm 0.00 in0.0 mm 0.00 in0.0 mm
02:11 PM 79.2°F26.2°C 59.0°F15.0°C 50% 4.0 mph ESE6.4 kmh ESE 7.4 mph11.9 kmh 29.98 in1015.2 mb 0.00 in0.0 mm 0.00 in0.0 mm 0.00 in0.0 mm
02:06 PM 79.0°F26.1°C 59.4°F15.2°C 51% 4.0 mph E6.4 kmh E 8.5 mph13.7 kmh 29.98 in1015.2 mb 0.00 in0.0 mm 0.00 in0.0 mm 0.00 in0.0 mm
02:01 PM 79.0°F26.1°C 58.8°F14.9°C 50% 4.7 mph SE7.6 kmh SE 8.5 mph13.7 kmh 29.99 in1015.6 mb 0.00 in0.0 mm 0.00 in0.0 mm 0.00 in0.0 mm
01:56 PM 78.3°F25.7°C 58.6°F14.8°C 51% 2.7 mph NE4.3 kmh NE 7.4 mph11.9 kmh 29.98 in1015.2 mb 0.00 in0.0 mm 0.00 in0.0 mm 0.00 in0.0 mm
01:51 PM 78.8°F26.0°C 59.2°F15.1°C 51% 4.5 mph NE7.2 kmh NE 6.3 mph10.1 kmh 29.99 in1015.6 mb 0.00 in0.0 mm 0.00 in0.0 mm 0.00 in0.0 mm
01:46 PM 78.4°F25.8°C 59.4°F15.2°C 52% 5.1 mph SE8.2 kmh SE 7.4 mph11.9 kmh 29.99 in1015.6 mb 0.00 in0.0 mm 0.00 in0.0 mm 0.00 in0.0 mm
01:41 PM 78.3°F25.7°C 58.1°F14.5°C 50% 1.8 mph WNW2.9 kmh WNW 4.3 mph6.9 kmh 29.99 in1015.6 mb 0.00 in0.0 mm 0.00 in0.0 mm 0.00 in0.0 mm
01:36 PM 78.1°F25.6°C 57.4°F14.1°C 49% 1.1 mph E1.8 kmh E 5.4 mph8.7 kmh 29.99 in1015.6 mb 0.00 in0.0 mm 0.00 in0.0 mm 0.00 in0.0 mm
01:31 PM 77.9°F25.5°C 59.4°F15.2°C 53% 1.1 mph SSW1.8 kmh SSW 4.3 mph6.9 kmh 29.99 in1015.6 mb 0.00 in0.0 mm 0.00 in0.0 mm 0.00 in0.0 mm
01:26 PM 78.3°F25.7°C 57.6°F14.2°C 49% 2.7 mph NE4.3 kmh NE 8.5 mph13.7 kmh 29.99 in1015.6 mb 0.00 in0.0 mm 0.00 in0.0 mm 0.00 in0.0 mm
01:21 PM 78.6°F25.9°C 59.0°F15.0°C 51% 3.8 mph ESE6.1 kmh ESE 6.3 mph10.1 kmh 29.99 in1015.6 mb 0.00 in0.0 mm 0.00 in0.0 mm 0.00 in0.0 mm
01:16 PM 78.1°F25.6°C 60.1°F15.6°C 54% 4.7 mph SE7.6 kmh SE 6.3 mph10.1 kmh 29.99 in1015.6 mb 0.00 in0.0 mm 0.00 in0.0 mm 0.00 in0.0 mm
01:11 PM 77.7°F25.4°C 57.6°F14.2°C 50% 2.0 mph NE3.2 kmh NE 7.4 mph11.9 kmh 29.99 in1015.6 mb 0.00 in0.0 mm 0.00 in0.0 mm 0.00 in0.0 mm
01:06 PM 77.5°F25.3°C 56.3°F13.5°C 48% 2.5 mph E4.0 kmh E 7.4 mph11.9 kmh 29.99 in1015.6 mb 0.00 in0.0 mm 0.00 in0.0 mm 0.00 in0.0 mm
01:01 PM 77.4°F25.2°C 59.4°F15.2°C 54% 1.6 mph NNW2.6 kmh NNW 5.4 mph8.7 kmh 30.00 in1015.9 mb 0.00 in0.0 mm 0.00 in0.0 mm 0.00 in0.0 mm
12:56 PM 76.8°F24.9°C 58.5°F14.7°C 53% 3.6 mph 5.8 kmh 6.3 mph10.1 kmh 30.00 in1015.9 mb 0.00 in0.0 mm 0.00 in0.0 mm 0.00 in0.0 mm
12:51 PM 76.1°F24.5°C 58.3°F14.6°C 54% 2.2 mph NE3.5 kmh NE 4.3 mph6.9 kmh 30.00 in1015.9 mb 0.00 in0.0 mm 0.00 in0.0 mm 0.00 in0.0 mm
12:41 PM 77.2°F25.1°C 59.2°F15.1°C 54% 3.8 mph NE6.1 kmh NE 7.4 mph11.9 kmh 30.01 in1016.3 mb 0.00 in0.0 mm 0.00 in0.0 mm 0.00 in0.0 mm
12:31 PM 76.1°F24.5°C 57.2°F14.0°C 52% 2.7 mph NNE4.3 kmh NNE 6.3 mph10.1 kmh 30.01 in1016.3 mb 0.00 in0.0 mm 0.00 in0.0 mm 0.00 in0.0 mm
12:26 PM 76.1°F24.5°C 58.3°F14.6°C 54% 4.7 mph NE7.6 kmh NE 7.4 mph11.9 kmh 30.01 in1016.3 mb 0.00 in0.0 mm 0.00 in0.0 mm 0.00 in0.0 mm
12:21 PM 76.5°F24.7°C 57.6°F14.2°C 52% 2.2 mph S3.5 kmh S 5.4 mph8.7 kmh 30.01 in1016.3 mb 0.00 in0.0 mm 0.00 in0.0 mm 0.00 in0.0 mm
12:16 PM 76.5°F24.7°C 58.6°F14.8°C 54% 4.0 mph ESE6.4 kmh ESE 7.4 mph11.9 kmh 30.01 in1016.3 mb 0.00 in0.0 mm 0.00 in0.0 mm 0.00 in0.0 mm
12:11 PM 75.9°F24.4°C 56.5°F13.6°C 51% 2.5 mph SE4.0 kmh SE 4.3 mph6.9 kmh 30.01 in1016.3 mb 0.00 in0.0 mm 0.00 in0.0 mm 0.00 in0.0 mm
12:06 PM 76.1°F24.5°C 57.7°F14.3°C 53% 1.6 mph NNE2.6 kmh NNE 5.4 mph8.7 kmh 30.01 in1016.3 mb 0.00 in0.0 mm 0.00 in0.0 mm 0.00 in0.0 mm
12:01 PM 76.5°F24.7°C 57.6°F14.2°C 52% 2.9 mph NE4.7 kmh NE 6.3 mph10.1 kmh 30.01 in1016.3 mb 0.00 in0.0 mm 0.00 in0.0 mm 0.00 in0.0 mm
11:56 AM 75.9°F24.4°C 58.6°F14.8°C 55% 4.0 mph ESE6.4 kmh ESE 5.4 mph8.7 kmh 30.01 in1016.3 mb 0.00 in0.0 mm 0.00 in0.0 mm 0.00 in0.0 mm
11:51 AM 75.0°F23.9°C 57.7°F14.3°C 55% 2.9 mph ESE4.7 kmh ESE 6.3 mph10.1 kmh 30.01 in1016.3 mb 0.00 in0.0 mm 0.00 in0.0 mm 0.00 in0.0 mm
11:46 AM 74.8°F23.8°C 56.5°F13.6°C 53% 2.0 mph SSE3.2 kmh SSE 5.4 mph8.7 kmh 30.01 in1016.3 mb 0.00 in0.0 mm 0.00 in0.0 mm 0.00 in0.0 mm
11:41 AM 74.8°F23.8°C 57.6°F14.2°C 55% 2.9 mph ENE4.7 kmh ENE 6.3 mph10.1 kmh 30.01 in1016.3 mb 0.00 in0.0 mm 0.00 in0.0 mm 0.00 in0.0 mm
11:36 AM 74.1°F23.4°C 57.9°F14.4°C 57% 4.5 mph SE7.2 kmh SE 7.4 mph11.9 kmh 30.01 in1016.3 mb 0.00 in0.0 mm 0.00 in0.0 mm 0.00 in0.0 mm
11:31 AM 73.9°F23.3°C 56.3°F13.5°C 54% 2.5 mph NW4.0 kmh NW 4.3 mph6.9 kmh 30.02 in1016.6 mb 0.00 in0.0 mm 0.00 in0.0 mm 0.00 in0.0 mm
11:26 AM 74.5°F23.6°C 56.7°F13.7°C 54% 3.4 mph 5.5 kmh 6.3 mph10.1 kmh 30.02 in1016.6 mb 0.00 in0.0 mm 0.00 in0.0 mm 0.00 in0.0 mm
11:21 AM 74.1°F23.4°C 55.9°F13.3°C 53% 1.3 mph NE2.1 kmh NE 5.4 mph8.7 kmh 30.02 in1016.6 mb 0.00 in0.0 mm 0.00 in0.0 mm 0.00 in0.0 mm
11:16 AM 74.1°F23.4°C 56.8°F13.8°C 55% 2.5 mph NE4.0 kmh NE 6.3 mph10.1 kmh 30.02 in1016.6 mb 0.00 in0.0 mm 0.00 in0.0 mm 0.00 in0.0 mm
11:11 AM 73.9°F23.3°C 56.3°F13.5°C 54% 3.1 mph NE5.0 kmh NE 5.4 mph8.7 kmh 30.02 in1016.6 mb 0.00 in0.0 mm 0.00 in0.0 mm 0.00 in0.0 mm
11:06 AM 74.5°F23.6°C 56.7°F13.7°C 54% 2.9 mph NNE4.7 kmh NNE 6.3 mph10.1 kmh 30.02 in1016.6 mb 0.00 in0.0 mm 0.00 in0.0 mm 0.00 in0.0 mm
11:01 AM 74.5°F23.6°C 57.2°F14.0°C 55% 4.3 mph NE6.9 kmh NE 7.4 mph11.9 kmh 30.02 in1016.6 mb 0.00 in0.0 mm 0.00 in0.0 mm 0.00 in0.0 mm
10:56 AM 73.9°F23.3°C 57.7°F14.3°C 57% 3.4 mph ESE5.5 kmh ESE 5.4 mph8.7 kmh 30.02 in1016.6 mb 0.00 in0.0 mm 0.00 in0.0 mm 0.00 in0.0 mm
10:51 AM 73.6°F23.1°C 57.4°F14.1°C 57% 1.1 mph E1.8 kmh E 4.3 mph6.9 kmh 30.02 in1016.6 mb 0.00 in0.0 mm 0.00 in0.0 mm 0.00 in0.0 mm
10:46 AM 72.9°F22.7°C 57.7°F14.3°C 59% 2.9 mph ESE4.7 kmh ESE 4.3 mph6.9 kmh 30.02 in1016.6 mb 0.00 in0.0 mm 0.00 in0.0 mm 0.00 in0.0 mm
10:41 AM 72.9°F22.7°C 56.3°F13.5°C 56% 2.2 mph WNW3.5 kmh WNW 3.1 mph5.0 kmh 30.02 in1016.6 mb 0.00 in0.0 mm 0.00 in0.0 mm 0.00 in0.0 mm
10:36 AM 72.5°F22.5°C 55.4°F13.0°C 55% 1.3 mph WSW2.1 kmh WSW 5.4 mph8.7 kmh 30.03 in1016.9 mb 0.00 in0.0 mm 0.00 in0.0 mm 0.00 in0.0 mm
10:31 AM 72.7°F22.6°C 57.6°F14.2°C 59% 1.1 mph NE1.8 kmh NE 4.3 mph6.9 kmh 30.03 in1016.9 mb 0.00 in0.0 mm 0.00 in0.0 mm 0.00 in0.0 mm
10:26 AM 72.5°F22.5°C 57.7°F14.3°C 60% 2.7 mph E4.3 kmh E 6.3 mph10.1 kmh 30.03 in1016.9 mb 0.00 in0.0 mm 0.00 in0.0 mm 0.00 in0.0 mm
10:21 AM 71.8°F22.1°C 57.6°F14.2°C 61% 1.6 mph SE2.6 kmh SE 2.0 mph3.2 kmh 30.02 in1016.6 mb 0.00 in0.0 mm 0.00 in0.0 mm 0.00 in0.0 mm
10:16 AM 71.4°F21.9°C 55.4°F13.0°C 57% 1.1 mph ENE1.8 kmh ENE 4.3 mph6.9 kmh 30.03 in1016.9 mb 0.00 in0.0 mm 0.00 in0.0 mm 0.00 in0.0 mm
10:11 AM 72.0°F22.2°C 58.3°F14.6°C 62% 2.5 mph NE4.0 kmh NE 6.3 mph10.1 kmh 30.02 in1016.6 mb 0.00 in0.0 mm 0.00 in0.0 mm 0.00 in0.0 mm
10:06 AM 71.1°F21.7°C 57.4°F14.1°C 62% 2.0 mph SSE3.2 kmh SSE 4.3 mph6.9 kmh 30.03 in1016.9 mb 0.00 in0.0 mm 0.00 in0.0 mm 0.00 in0.0 mm
10:01 AM 71.4°F21.9°C 56.8°F13.8°C 60% 1.6 mph S2.6 kmh S 3.1 mph5.0 kmh 30.03 in1016.9 mb 0.00 in0.0 mm 0.00 in0.0 mm 0.00 in0.0 mm
09:56 AM 71.6°F22.0°C 57.9°F14.4°C 62% 1.3 mph E2.1 kmh E 3.1 mph5.0 kmh 30.03 in1016.9 mb 0.00 in0.0 mm 0.00 in0.0 mm 0.00 in0.0 mm
09:51 AM 71.4°F21.9°C 58.1°F14.5°C 63% 2.9 mph NE4.7 kmh NE 5.4 mph8.7 kmh 30.03 in1016.9 mb 0.00 in0.0 mm 0.00 in0.0 mm 0.00 in0.0 mm
09:46 AM 70.5°F21.4°C 58.1°F14.5°C 65% 3.4 mph NE5.5 kmh NE 5.4 mph8.7 kmh 30.03 in1016.9 mb 0.00 in0.0 mm 0.00 in0.0 mm 0.00 in0.0 mm
09:41 AM 69.8°F21.0°C 57.9°F14.4°C 66% 2.5 mph NE4.0 kmh NE 5.4 mph8.7 kmh 30.03 in1016.9 mb 0.00 in0.0 mm 0.00 in0.0 mm 0.00 in0.0 mm
09:36 AM 69.8°F21.0°C 56.7°F13.7°C 63% 1.1 mph NE1.8 kmh NE 2.0 mph3.2 kmh 30.03 in1016.9 mb 0.00 in0.0 mm 0.00 in0.0 mm 0.00 in0.0 mm
09:31 AM 70.3°F21.3°C 58.1°F14.5°C 65% 2.7 mph NE4.3 kmh NE 7.4 mph11.9 kmh 30.03 in1016.9 mb 0.00 in0.0 mm 0.00 in0.0 mm 0.00 in0.0 mm
09:26 AM 70.2°F21.2°C 58.6°F14.8°C 67% 4.3 mph ENE6.9 kmh ENE 7.4 mph11.9 kmh 30.03 in1016.9 mb 0.00 in0.0 mm 0.00 in0.0 mm 0.00 in0.0 mm
09:21 AM 69.3°F20.7°C 59.0°F15.0°C 70% 3.1 mph ESE5.0 kmh ESE 5.4 mph8.7 kmh 30.03 in1016.9 mb 0.00 in0.0 mm 0.00 in0.0 mm 0.00 in0.0 mm
09:16 AM 68.5°F20.3°C 56.7°F13.7°C 66% 1.6 mph SSE2.6 kmh SSE 4.3 mph6.9 kmh 30.03 in1016.9 mb 0.00 in0.0 mm 0.00 in0.0 mm 0.00 in0.0 mm
09:11 AM 68.5°F20.3°C 57.2°F14.0°C 67% 3.4 mph E5.5 kmh E 5.4 mph8.7 kmh 30.03 in1016.9 mb 0.00 in0.0 mm 0.00 in0.0 mm 0.00 in0.0 mm
09:06 AM 68.4°F20.2°C 57.4°F14.1°C 68% 2.9 mph ENE4.7 kmh ENE 6.3 mph10.1 kmh 30.04 in1017.3 mb 0.00 in0.0 mm 0.00 in0.0 mm 0.00 in0.0 mm
09:01 AM 68.4°F20.2°C 58.3°F14.6°C 70% 1.8 mph S2.9 kmh S 4.3 mph6.9 kmh 30.04 in1017.3 mb 0.00 in0.0 mm 0.00 in0.0 mm 0.00 in0.0 mm
08:56 AM 67.8°F19.9°C 58.5°F14.7°C 72% 2.7 mph SE4.3 kmh SE 5.4 mph8.7 kmh 30.03 in1016.9 mb 0.00 in0.0 mm 0.00 in0.0 mm 0.00 in0.0 mm
08:51 AM 67.5°F19.7°C 58.1°F14.5°C 72% 1.3 mph SSE2.1 kmh SSE 3.1 mph5.0 kmh 30.03 in1016.9 mb 0.00 in0.0 mm 0.00 in0.0 mm 0.00 in0.0 mm
08:46 AM 67.3°F19.6°C 58.3°F14.6°C 73% 0.7 mph E1.1 kmh E 4.3 mph6.9 kmh 30.04 in1017.3 mb 0.00 in0.0 mm 0.00 in0.0 mm 0.00 in0.0 mm
08:41 AM 67.3°F19.6°C 59.0°F15.0°C 75% 3.1 mph E5.0 kmh E 5.4 mph8.7 kmh 30.04 in1017.3 mb 0.00 in0.0 mm 0.00 in0.0 mm 0.00 in0.0 mm
08:36 AM 66.6°F19.2°C 59.5°F15.3°C 78% 1.8 mph E2.9 kmh E 5.4 mph8.7 kmh 30.04 in1017.3 mb 0.00 in0.0 mm 0.00 in0.0 mm 0.00 in0.0 mm
08:31 AM 66.0°F18.9°C 60.1°F15.6°C 81% 2.2 mph E3.5 kmh E 5.4 mph8.7 kmh 30.04 in1017.3 mb 0.00 in0.0 mm 0.00 in0.0 mm 0.00 in0.0 mm
08:26 AM 65.1°F18.4°C 60.1°F15.6°C 84% 1.6 mph SE2.6 kmh SE 2.0 mph3.2 kmh 30.03 in1016.9 mb 0.00 in0.0 mm 0.00 in0.0 mm 0.00 in0.0 mm
08:21 AM 64.8°F18.2°C 60.8°F16.0°C 87% 1.1 mph SE1.8 kmh SE 5.4 mph8.7 kmh 30.03 in1016.9 mb 0.00 in0.0 mm 0.00 in0.0 mm 0.00 in0.0 mm
08:16 AM 64.0°F17.8°C 61.3°F16.3°C 91% 1.1 mph SE1.8 kmh SE 2.0 mph3.2 kmh 30.04 in1017.3 mb 0.00 in0.0 mm 0.00 in0.0 mm 0.00 in0.0 mm
08:11 AM 63.1°F17.3°C 60.8°F16.0°C 92% 1.1 mph S1.8 kmh S 2.0 mph3.2 kmh 30.04 in1017.3 mb 0.00 in0.0 mm 0.00 in0.0 mm 0.00 in0.0 mm
08:06 AM 62.6°F17.0°C 60.6°F15.9°C 93% 1.8 mph SE2.9 kmh SE 3.1 mph5.0 kmh 30.03 in1016.9 mb 0.00 in0.0 mm 0.00 in0.0 mm 0.00 in0.0 mm
08:01 AM 62.2°F16.8°C 60.3°F15.7°C 93% 0.7 mph S1.1 kmh S 2.0 mph3.2 kmh 30.04 in1017.3 mb 0.00 in0.0 mm 0.00 in0.0 mm 0.00 in0.0 mm
07:56 AM 62.1°F16.7°C 60.3°F15.7°C 94% 1.6 mph SSE2.6 kmh SSE 3.1 mph5.0 kmh 30.04 in1017.3 mb 0.00 in0.0 mm 0.00 in0.0 mm 0.00 in0.0 mm
07:51 AM 61.7°F16.5°C 59.9°F15.5°C 94% 0.9 mph SW1.4 kmh SW 2.0 mph3.2 kmh 30.04 in1017.3 mb 0.00 in0.0 mm 0.00 in0.0 mm 0.00 in0.0 mm
07:46 AM 61.2°F16.2°C 59.4°F15.2°C 94% 0.4 mph NNW0.6 kmh NNW 2.0 mph3.2 kmh 30.04 in1017.3 mb 0.00 in0.0 mm 0.00 in0.0 mm 0.00 in0.0 mm
07:41 AM 60.4°F15.8°C 58.6°F14.8°C 94% 0.2 mph NNW0.3 kmh NNW 1.1 mph1.8 kmh 30.04 in1017.3 mb 0.00 in0.0 mm 0.00 in0.0 mm 0.00 in0.0 mm
07:36 AM 59.7°F15.4°C 57.9°F14.4°C 94% Calm Calm 1.1 mph1.8 kmh 30.03 in1016.9 mb 0.00 in0.0 mm 0.00 in0.0 mm 0.00 in0.0 mm
07:31 AM 59.2°F15.1°C 57.4°F14.1°C 94% 0.4 mph NNW0.6 kmh NNW 1.1 mph1.8 kmh 30.04 in1017.3 mb 0.00 in0.0 mm 0.00 in0.0 mm 0.00 in0.0 mm
07:26 AM 58.6°F14.8°C 56.8°F13.8°C 94% 0.2 mph NNW0.3 kmh NNW 1.1 mph1.8 kmh 30.04 in1017.3 mb 0.00 in0.0 mm 0.00 in0.0 mm 0.00 in0.0 mm
07:21 AM 58.3°F14.6°C 56.5°F13.6°C 94% 0.2 mph NNW0.3 kmh NNW 1.1 mph1.8 kmh 30.03 in1016.9 mb 0.00 in0.0 mm 0.00 in0.0 mm 0.00 in0.0 mm
07:16 AM 57.7°F14.3°C 55.9°F13.3°C 94% Calm Calm 1.1 mph1.8 kmh 30.04 in1017.3 mb 0.00 in0.0 mm 0.00 in0.0 mm 0.00 in0.0 mm
07:11 AM 57.6°F14.2°C 55.8°F13.2°C 94% Calm Calm 1.1 mph1.8 kmh 30.04 in1017.3 mb 0.00 in0.0 mm 0.00 in0.0 mm 0.00 in0.0 mm
07:06 AM 57.0°F13.9°C 55.2°F12.9°C 94% Calm Calm 1.1 mph1.8 kmh 30.04 in1017.3 mb 0.00 in0.0 mm 0.00 in0.0 mm 0.00 in0.0 mm
07:01 AM 56.5°F13.6°C 54.9°F12.7°C 94% Calm Calm -- 30.04 in1017.3 mb 0.00 in0.0 mm 0.00 in0.0 mm 0.00 in0.0 mm
06:56 AM 55.8°F13.2°C 54.1°F12.3°C 94% Calm Calm 1.1 mph1.8 kmh 30.04 in1017.3 mb 0.00 in0.0 mm 0.00 in0.0 mm 0.00 in0.0 mm
06:51 AM 55.0°F12.8°C 53.4°F11.9°C 94% Calm Calm -- 30.04 in1017.3 mb 0.00 in0.0 mm 0.00 in0.0 mm 0.00 in0.0 mm
06:46 AM 54.5°F12.5°C 52.9°F11.6°C 94% Calm Calm -- 30.03 in1016.9 mb 0.00 in0.0 mm 0.00 in0.0 mm 0.00 in0.0 mm
06:41 AM 54.0°F12.2°C 52.3°F11.3°C 94% Calm Calm -- 30.03 in1016.9 mb 0.00 in0.0 mm 0.00 in0.0 mm 0.00 in0.0 mm
06:36 AM 53.4°F11.9°C 51.8°F11.0°C 94% Calm Calm -- 30.03 in1016.9 mb 0.00 in0.0 mm 0.00 in0.0 mm 0.00 in0.0 mm
06:31 AM 52.9°F11.6°C 51.3°F10.7°C 94% Calm Calm -- 30.03 in1016.9 mb 0.00 in0.0 mm 0.00 in0.0 mm 0.00 in0.0 mm
06:26 AM 52.2°F11.2°C 50.5°F10.3°C 94% Calm Calm -- 30.03 in1016.9 mb 0.00 in0.0 mm 0.00 in0.0 mm 0.00 in0.0 mm
06:21 AM 51.8°F11.0°C 50.2°F10.1°C 94% Calm Calm -- 30.03 in1016.9 mb 0.00 in0.0 mm 0.00 in0.0 mm 0.00 in0.0 mm
06:16 AM 51.4°F10.8°C 49.8°F9.9°C 94% Calm Calm -- 30.03 in1016.9 mb 0.00 in0.0 mm 0.00 in0.0 mm 0.00 in0.0 mm
06:11 AM 51.3°F10.7°C 49.3°F9.6°C 93% Calm Calm -- 30.03 in1016.9 mb 0.00 in0.0 mm 0.00 in0.0 mm 0.00 in0.0 mm
06:06 AM 51.1°F10.6°C 49.1°F9.5°C 93% Calm Calm -- 30.03 in1016.9 mb 0.00 in0.0 mm 0.00 in0.0 mm 0.00 in0.0 mm
06:01 AM 50.9°F10.5°C 48.9°F9.4°C 93% Calm Calm -- 30.04 in1017.3 mb 0.00 in0.0 mm 0.00 in0.0 mm 0.00 in0.0 mm
05:56 AM 50.7°F10.4°C 48.7°F9.3°C 93% Calm Calm -- 30.04 in1017.3 mb 0.00 in0.0 mm 0.00 in0.0 mm 0.00 in0.0 mm
05:51 AM 50.5°F10.3°C 48.6°F9.2°C 93% Calm Calm -- 30.04 in1017.3 mb 0.00 in0.0 mm 0.00 in0.0 mm 0.00 in0.0 mm
05:46 AM 50.2°F10.1°C 48.6°F9.2°C 94% Calm Calm -- 30.04 in1017.3 mb 0.00 in0.0 mm 0.00 in0.0 mm 0.00 in0.0 mm
05:41 AM 49.6°F9.8°C 47.7°F8.7°C 93% Calm Calm -- 30.04 in1017.3 mb 0.00 in0.0 mm 0.00 in0.0 mm 0.00 in0.0 mm
05:36 AM 49.5°F9.7°C 47.5°F8.6°C 93% Calm Calm -- 30.04 in1017.3 mb 0.00 in0.0 mm 0.00 in0.0 mm 0.00 in0.0 mm
05:31 AM 49.3°F9.6°C 47.3°F8.5°C 93% Calm Calm -- 30.04 in1017.3 mb 0.00 in0.0 mm 0.00 in0.0 mm 0.00 in0.0 mm
05:26 AM 49.3°F9.6°C 47.3°F8.5°C 93% Calm Calm -- 30.03 in1016.9 mb 0.00 in0.0 mm 0.00 in0.0 mm 0.00 in0.0 mm
05:21 AM 49.1°F9.5°C 47.1°F8.4°C 93% Calm Calm -- 30.04 in1017.3 mb 0.00 in0.0 mm 0.00 in0.0 mm 0.00 in0.0 mm
05:16 AM 49.1°F9.5°C 47.1°F8.4°C 93% Calm Calm -- 30.04 in1017.3 mb 0.00 in0.0 mm 0.00 in0.0 mm 0.00 in0.0 mm
05:11 AM 49.1°F9.5°C 47.1°F8.4°C 93% Calm Calm -- 30.04 in1017.3 mb 0.00 in0.0 mm 0.00 in0.0 mm 0.00 in0.0 mm
05:06 AM 48.9°F9.4°C 46.9°F8.3°C 93% Calm Calm -- 30.04 in1017.3 mb 0.00 in0.0 mm 0.00 in0.0 mm 0.00 in0.0 mm
05:01 AM 48.9°F9.4°C 46.9°F8.3°C 93% Calm Calm -- 30.04 in1017.3 mb 0.00 in0.0 mm 0.00 in0.0 mm 0.00 in0.0 mm
04:56 AM 49.1°F9.5°C 47.1°F8.4°C 93% Calm Calm 1.1 mph1.8 kmh 30.04 in1017.3 mb 0.00 in0.0 mm 0.00 in0.0 mm 0.00 in0.0 mm
04:51 AM 49.1°F9.5°C 47.1°F8.4°C 93% Calm Calm -- 30.04 in1017.3 mb 0.00 in0.0 mm 0.00 in0.0 mm 0.00 in0.0 mm
04:46 AM 48.9°F9.4°C 46.9°F8.3°C 93% Calm Calm -- 30.05 in1017.6 mb 0.00 in0.0 mm 0.00 in0.0 mm 0.00 in0.0 mm
04:41 AM 48.7°F9.3°C 46.8°F8.2°C 93% Calm Calm -- 30.05 in1017.6 mb 0.00 in0.0 mm 0.00 in0.0 mm 0.00 in0.0 mm
04:36 AM 48.9°F9.4°C 46.9°F8.3°C 93% Calm Calm -- 30.04 in1017.3 mb 0.00 in0.0 mm 0.00 in0.0 mm 0.00 in0.0 mm
04:31 AM 48.9°F9.4°C 46.9°F8.3°C 93% Calm Calm -- 30.05 in1017.6 mb 0.00 in0.0 mm 0.00 in0.0 mm 0.00 in0.0 mm
04:26 AM 49.1°F9.5°C 47.1°F8.4°C 93% Calm Calm -- 30.04 in1017.3 mb 0.00 in0.0 mm 0.00 in0.0 mm 0.00 in0.0 mm
04:21 AM 49.3°F9.6°C 47.3°F8.5°C 93% Calm Calm -- 30.04 in1017.3 mb 0.00 in0.0 mm 0.00 in0.0 mm 0.00 in0.0 mm
04:16 AM 49.3°F9.6°C 47.3°F8.5°C 93% Calm Calm -- 30.04 in1017.3 mb 0.00 in0.0 mm 0.00 in0.0 mm 0.00 in0.0 mm
04:11 AM 49.5°F9.7°C 47.5°F8.6°C 93% Calm Calm -- 30.04 in1017.3 mb 0.00 in0.0 mm 0.00 in0.0 mm 0.00 in0.0 mm
04:06 AM 49.5°F9.7°C 47.5°F8.6°C 93% Calm Calm -- 30.04 in1017.3 mb 0.00 in0.0 mm 0.00 in0.0 mm 0.00 in0.0 mm
04:01 AM 49.5°F9.7°C 47.5°F8.6°C 93% Calm Calm -- 30.04 in1017.3 mb 0.00 in0.0 mm 0.00 in0.0 mm 0.00 in0.0 mm
03:56 AM 49.5°F9.7°C 47.5°F8.6°C 93% Calm Calm -- 30.04 in1017.3 mb 0.00 in0.0 mm 0.00 in0.0 mm 0.00 in0.0 mm
03:51 AM 49.5°F9.7°C 47.3°F8.5°C 92% Calm Calm -- 30.04 in1017.3 mb 0.00 in0.0 mm 0.00 in0.0 mm 0.00 in0.0 mm
03:46 AM 49.6°F9.8°C 47.5°F8.6°C 92% Calm Calm -- 30.04 in1017.3 mb 0.00 in0.0 mm 0.00 in0.0 mm 0.00 in0.0 mm
03:41 AM 49.6°F9.8°C 47.5°F8.6°C 92% Calm Calm -- 30.05 in1017.6 mb 0.00 in0.0 mm 0.00 in0.0 mm 0.00 in0.0 mm
03:36 AM 49.6°F9.8°C 47.5°F8.6°C 92% Calm Calm -- 30.05 in1017.6 mb 0.00 in0.0 mm 0.00 in0.0 mm 0.00 in0.0 mm
03:31 AM 49.8°F9.9°C 47.7°F8.7°C 92% Calm Calm -- 30.05 in1017.6 mb 0.00 in0.0 mm 0.00 in0.0 mm 0.00 in0.0 mm
03:26 AM 49.8°F9.9°C 47.7°F8.7°C 92% Calm Calm -- 30.05 in1017.6 mb 0.00 in0.0 mm 0.00 in0.0 mm 0.00 in0.0 mm
03:21 AM 49.8°F9.9°C 47.7°F8.7°C 92% Calm Calm -- 30.05 in1017.6 mb 0.00 in0.0 mm 0.00 in0.0 mm 0.00 in0.0 mm
03:16 AM 50.0°F10.0°C 47.8°F8.8°C 92% Calm Calm -- 30.05 in1017.6 mb 0.00 in0.0 mm 0.00 in0.0 mm 0.00 in0.0 mm
03:11 AM 50.2°F10.1°C 48.0°F8.9°C 92% Calm Calm -- 30.05 in1017.6 mb 0.00 in0.0 mm 0.00 in0.0 mm 0.00 in0.0 mm
03:06 AM 50.4°F10.2°C 48.2°F9.0°C 92% Calm Calm -- 30.05 in1017.6 mb 0.00 in0.0 mm 0.00 in0.0 mm 0.00 in0.0 mm
03:01 AM 50.4°F10.2°C 48.2°F9.0°C 92% Calm Calm -- 30.05 in1017.6 mb 0.00 in0.0 mm 0.00 in0.0 mm 0.00 in0.0 mm
02:56 AM 50.5°F10.3°C 48.4°F9.1°C 92% Calm Calm -- 30.05 in1017.6 mb 0.00 in0.0 mm 0.00 in0.0 mm 0.00 in0.0 mm
02:51 AM 50.7°F10.4°C 48.6°F9.2°C 92% Calm Calm 1.1 mph1.8 kmh 30.05 in1017.6 mb 0.00 in0.0 mm 0.00 in0.0 mm 0.00 in0.0 mm
02:46 AM 50.7°F10.4°C 48.6°F9.2°C 92% Calm Calm -- 30.06 in1017.9 mb 0.00 in0.0 mm 0.00 in0.0 mm 0.00 in0.0 mm
02:41 AM 50.9°F10.5°C 48.7°F9.3°C 92% Calm Calm -- 30.06 in1017.9 mb 0.00 in0.0 mm 0.00 in0.0 mm 0.00 in0.0 mm
02:36 AM 51.1°F10.6°C 48.9°F9.4°C 92% Calm Calm -- 30.06 in1017.9 mb 0.00 in0.0 mm 0.00 in0.0 mm 0.00 in0.0 mm
02:31 AM 50.7°F10.4°C 48.6°F9.2°C 92% Calm Calm -- 30.06 in1017.9 mb 0.00 in0.0 mm 0.00 in0.0 mm 0.00 in0.0 mm
02:26 AM 50.5°F10.3°C 48.4°F9.1°C 92% Calm Calm -- 30.06 in1017.9 mb 0.00 in0.0 mm 0.00 in0.0 mm 0.00 in0.0 mm
02:21 AM 50.5°F10.3°C 48.4°F9.1°C 92% Calm Calm -- 30.06 in1017.9 mb 0.00 in0.0 mm 0.00 in0.0 mm 0.00 in0.0 mm
02:16 AM 50.5°F10.3°C 48.4°F9.1°C 92% Calm Calm -- 30.06 in1017.9 mb 0.00 in0.0 mm 0.00 in0.0 mm 0.00 in0.0 mm
02:11 AM 50.7°F10.4°C 48.6°F9.2°C 92% Calm Calm -- 30.06 in1017.9 mb 0.00 in0.0 mm 0.00 in0.0 mm 0.00 in0.0 mm
02:06 AM 50.7°F10.4°C 48.6°F9.2°C 92% Calm Calm -- 30.06 in1017.9 mb 0.00 in0.0 mm 0.00 in0.0 mm 0.00 in0.0 mm
02:01 AM 50.7°F10.4°C 48.6°F9.2°C 92% Calm Calm -- 30.06 in1017.9 mb 0.00 in0.0 mm 0.00 in0.0 mm 0.00 in0.0 mm
01:56 AM 50.7°F10.4°C 48.2°F9.0°C 91% Calm Calm 1.1 mph1.8 kmh 30.07 in1018.3 mb 0.00 in0.0 mm 0.00 in0.0 mm 0.00 in0.0 mm
01:51 AM 51.1°F10.6°C 48.6°F9.2°C 91% Calm Calm -- 30.07 in1018.3 mb 0.00 in0.0 mm 0.00 in0.0 mm 0.00 in0.0 mm
01:46 AM 51.3°F10.7°C 48.7°F9.3°C 91% Calm Calm -- 30.07 in1018.3 mb 0.00 in0.0 mm 0.00 in0.0 mm 0.00 in0.0 mm
01:41 AM 51.4°F10.8°C 48.9°F9.4°C 91% Calm Calm -- 30.07 in1018.3 mb 0.00 in0.0 mm 0.00 in0.0 mm 0.00 in0.0 mm
01:36 AM 51.6°F10.9°C 49.1°F9.5°C 91% Calm Calm -- 30.07 in1018.3 mb 0.00 in0.0 mm 0.00 in0.0 mm 0.00 in0.0 mm
01:31 AM 51.6°F10.9°C 49.1°F9.5°C 91% Calm Calm -- 30.07 in1018.3 mb 0.00 in0.0 mm 0.00 in0.0 mm 0.00 in0.0 mm
01:26 AM 52.0°F11.1°C 49.5°F9.7°C 91% Calm Calm -- 30.07 in1018.3 mb 0.00 in0.0 mm 0.00 in0.0 mm 0.00 in0.0 mm
01:21 AM 52.2°F11.2°C 49.6°F9.8°C 91% Calm Calm -- 30.07 in1018.3 mb 0.00 in0.0 mm 0.00 in0.0 mm 0.00 in0.0 mm
01:16 AM 52.5°F11.4°C 50.0°F10.0°C 91% Calm Calm -- 30.07 in1018.3 mb 0.00 in0.0 mm 0.00 in0.0 mm 0.00 in0.0 mm
01:11 AM 52.7°F11.5°C 50.2°F10.1°C 91% Calm Calm -- 30.07 in1018.3 mb 0.00 in0.0 mm 0.00 in0.0 mm 0.00 in0.0 mm
01:06 AM 52.9°F11.6°C 50.4°F10.2°C 91% Calm Calm -- 30.07 in1018.3 mb 0.00 in0.0 mm 0.00 in0.0 mm 0.00 in0.0 mm
01:01 AM 52.9°F11.6°C 50.4°F10.2°C 91% Calm Calm -- 30.07 in1018.3 mb 0.00 in0.0 mm 0.00 in0.0 mm 0.00 in0.0 mm
12:56 AM 53.1°F11.7°C 50.5°F10.3°C 91% Calm Calm -- 30.07 in1018.3 mb 0.00 in0.0 mm 0.00 in0.0 mm 0.00 in0.0 mm
12:51 AM 53.2°F11.8°C 50.7°F10.4°C 91% Calm Calm -- 30.07 in1018.3 mb 0.00 in0.0 mm 0.00 in0.0 mm 0.00 in0.0 mm
12:46 AM 53.2°F11.8°C 50.7°F10.4°C 91% Calm Calm -- 30.07 in1018.3 mb 0.00 in0.0 mm 0.00 in0.0 mm 0.00 in0.0 mm
12:41 AM 53.4°F11.9°C 50.9°F10.5°C 91% Calm Calm -- 30.07 in1018.3 mb 0.00 in0.0 mm 0.00 in0.0 mm 0.00 in0.0 mm
12:36 AM 53.6°F12.0°C 51.1°F10.6°C 91% Calm Calm -- 30.07 in1018.3 mb 0.00 in0.0 mm 0.00 in0.0 mm 0.00 in0.0 mm
12:31 AM 53.6°F12.0°C 50.7°F10.4°C 90% Calm Calm -- 30.07 in1018.3 mb 0.00 in0.0 mm 0.00 in0.0 mm 0.00 in0.0 mm
12:26 AM 53.8°F12.1°C 50.9°F10.5°C 90% Calm Calm -- 30.07 in1018.3 mb 0.00 in0.0 mm 0.00 in0.0 mm 0.00 in0.0 mm
12:21 AM 54.0°F12.2°C 51.1°F10.6°C 90% Calm Calm -- 30.07 in1018.3 mb 0.00 in0.0 mm 0.00 in0.0 mm 0.00 in0.0 mm
12:16 AM 54.0°F12.2°C 51.1°F10.6°C 90% Calm Calm -- 30.07 in1018.3 mb 0.00 in0.0 mm 0.00 in0.0 mm 0.00 in0.0 mm
12:11 AM 54.1°F12.3°C 51.3°F10.7°C 90% Calm Calm -- 30.07 in1018.3 mb 0.00 in0.0 mm 0.00 in0.0 mm 0.00 in0.0 mm
12:06 AM 54.1°F12.3°C 51.3°F10.7°C 90% Calm Calm -- 30.07 in1018.3 mb 0.00 in0.0 mm 0.00 in0.0 mm 0.00 in0.0 mm
12:01 AM 54.1°F12.3°C 51.3°F10.7°C 90% Calm Calm -- 30.08 in1018.6 mb 0.00 in0.0 mm 0.00 in0.0 mm 0.00 in0.0 mm